Terminal Aerodrome Forecast
Issued by NWS

Home | Current Version | Previous Version | Text Only | Print | Product List | Glossary On
Versions: 1 2 3 4 5 6 7 8 9 10 11 12 13
000
FTUS44 KLIX 172340
TAFHUM
TAF
KHUM 172340Z 1800/1824 14004KT 3SM BR BKN005
     FM180400 17004KT 1/4SM FG BKN003
     FM181500 17006KT 4SM BR BKN005 BKN025 PROB30 1817/1818 3/4SM
      SHRA BR
     FM181800 18007KT P6SM BKN008 BKN025 PROB30 1818/1821 3/4SM
      -SHRA
     FM182100 18006KT P6SM BKN008 BKN025 PROB30 1821/1824 4SM -SHRA
      OVC003=

USA.gov is the U.S. government's official web portal to all federal, state and local government web resources and services.